createdAt,value
2019-03-24T00:00:40.536Z,7.87
2019-03-24T00:03:07.749Z,7.63
2019-03-24T00:05:35.003Z,6.73
2019-03-24T00:08:02.342Z,7.50
2019-03-24T00:10:29.535Z,8.57
2019-03-24T00:12:56.999Z,6.67
2019-03-24T00:15:26.511Z,8.47
2019-03-24T00:17:53.360Z,8.23
2019-03-24T00:20:20.563Z,9.03
2019-03-24T00:22:47.754Z,9.57
2019-03-24T00:25:14.966Z,8.57
2019-03-24T00:27:42.154Z,9.53
2019-03-24T00:30:09.896Z,9.57
2019-03-24T00:32:37.222Z,10.03
2019-03-24T00:35:04.632Z,10.97
2019-03-24T00:37:31.812Z,10.90
2019-03-24T00:39:59.153Z,10.57
2019-03-24T00:42:26.498Z,13.17
2019-03-24T00:44:53.765Z,11.50
2019-03-24T00:47:22.545Z,11.20
2019-03-24T00:49:49.861Z,12.53
2019-03-24T00:52:17.171Z,11.60
2019-03-24T00:54:44.274Z,11.37
2019-03-24T00:57:11.515Z,10.93
2019-03-24T00:59:38.706Z,11.60
2019-03-24T01:02:06.057Z,12.47
2019-03-24T01:04:33.415Z,11.63
2019-03-24T01:07:00.656Z,13.03
2019-03-24T01:09:27.977Z,11.90
2019-03-24T01:11:55.188Z,13.27
2019-03-24T01:14:22.402Z,12.40
2019-03-24T01:16:49.593Z,13.43
2019-03-24T01:19:16.780Z,13.73
2019-03-24T01:21:44.128Z,13.97
2019-03-24T01:24:11.396Z,12.43
2019-03-24T01:26:38.637Z,13.07
2019-03-24T01:29:05.950Z,11.37
2019-03-24T01:31:33.127Z,12.43
2019-03-24T01:34:00.443Z,13.80
2019-03-24T01:36:27.748Z,13.60
2019-03-24T01:38:54.945Z,13.30
2019-03-24T01:41:22.148Z,12.20
2019-03-24T01:43:49.539Z,12.60
2019-03-24T01:46:16.712Z,13.73
2019-03-24T01:48:43.938Z,14.67
2019-03-24T01:51:11.332Z,13.47
2019-03-24T01:53:38.477Z,11.97
2019-03-24T01:56:06.234Z,12.13
2019-03-24T01:58:33.531Z,12.93
2019-03-24T02:01:00.739Z,13.57
2019-03-24T02:03:27.938Z,12.80
2019-03-24T02:05:55.316Z,14.07
2019-03-24T02:08:22.528Z,14.03
2019-03-24T02:10:49.793Z,12.53
2019-03-24T02:13:17.027Z,12.10
2019-03-24T02:15:44.223Z,14.07
2019-03-24T02:18:11.535Z,13.53
2019-03-24T02:20:38.844Z,14.20
2019-03-24T02:23:06.042Z,13.53
2019-03-24T02:25:33.369Z,14.63
2019-03-24T02:28:00.621Z,13.10
2019-03-24T02:30:27.793Z,13.47
2019-03-24T02:32:55.074Z,13.27
2019-03-24T02:35:22.316Z,14.93
2019-03-24T02:37:49.663Z,12.03
2019-03-24T02:40:16.853Z,14.63
2019-03-24T02:42:44.100Z,16.60
2019-03-24T02:45:11.576Z,15.20
2019-03-24T02:47:38.821Z,13.93
2019-03-24T02:50:06.829Z,17.27
2019-03-24T02:52:34.118Z,14.77
2019-03-24T02:55:01.339Z,15.37
2019-03-24T02:57:28.520Z,16.43
2019-03-24T02:59:56.806Z,16.77
2019-03-24T03:02:24.088Z,16.17
2019-03-24T03:04:51.309Z,17.27
2019-03-24T03:07:18.700Z,16.97
2019-03-24T03:09:45.875Z,16.73
2019-03-24T03:12:13.235Z,16.73
2019-03-24T03:14:41.636Z,17.97
2019-03-24T03:17:08.924Z,15.87
2019-03-24T03:19:36.120Z,16.07
2019-03-24T03:22:03.526Z,15.67
2019-03-24T03:24:30.818Z,16.43
2019-03-24T03:26:58.094Z,18.67
2019-03-24T03:29:25.325Z,18.17
2019-03-24T03:31:52.647Z,17.23
2019-03-24T03:34:19.878Z,17.30
2019-03-24T03:36:47.120Z,18.13
2019-03-24T03:39:14.387Z,16.40
2019-03-24T03:41:41.554Z,17.63
2019-03-24T03:44:08.751Z,18.17
2019-03-24T03:46:36.030Z,20.07
2019-03-24T03:49:03.230Z,20.40
2019-03-24T03:51:30.403Z,19.10
2019-03-24T03:54:00.645Z,20.10
2019-03-24T03:56:27.907Z,18.83
2019-03-24T03:58:55.064Z,18.80
2019-03-24T04:01:22.352Z,17.40
2019-03-24T04:03:49.763Z,19.27
2019-03-24T04:06:17.052Z,18.13
2019-03-24T04:08:44.245Z,19.40
2019-03-24T04:11:11.643Z,17.47
2019-03-24T04:13:38.975Z,19.03
2019-03-24T04:16:06.129Z,20.90
2019-03-24T04:18:34.637Z,17.73
2019-03-24T04:21:01.885Z,18.83
2019-03-24T04:23:29.184Z,18.20
2019-03-24T04:25:56.386Z,19.70
2019-03-24T04:28:23.743Z,17.80
2019-03-24T04:30:52.665Z,17.50
2019-03-24T04:33:21.225Z,19.77
2019-03-24T04:35:49.696Z,18.10
2019-03-24T04:38:17.318Z,18.80
2019-03-24T04:40:45.827Z,21.53
2019-03-24T04:43:12.980Z,17.77
2019-03-24T04:45:40.426Z,18.53
2019-03-24T04:48:07.626Z,20.40
2019-03-24T04:50:34.940Z,20.73
2019-03-24T04:53:02.116Z,18.87
2019-03-24T04:55:32.212Z,18.73
2019-03-24T04:57:59.483Z,18.07
2019-03-24T05:00:34.564Z,17.97
2019-03-24T05:03:01.994Z,19.17
2019-03-24T05:05:29.299Z,17.67
2019-03-24T05:07:56.989Z,16.80
2019-03-24T05:10:27.455Z,19.70
2019-03-24T05:12:54.815Z,18.43
2019-03-24T05:15:22.229Z,20.27
2019-03-24T05:17:49.588Z,20.90
2019-03-24T05:20:16.975Z,17.60
2019-03-24T05:22:44.363Z,17.07
2019-03-24T05:25:11.720Z,20.03
2019-03-24T05:27:38.879Z,16.07
2019-03-24T05:30:06.497Z,16.10
2019-03-24T05:32:33.747Z,16.20
2019-03-24T05:35:01.729Z,18.00
2019-03-24T05:37:29.100Z,19.53
2019-03-24T05:39:56.308Z,17.23
2019-03-24T05:42:23.759Z,18.87
2019-03-24T05:44:50.944Z,18.60
2019-03-24T05:47:18.175Z,19.37
2019-03-24T05:49:45.371Z,23.00
2019-03-24T05:52:12.651Z,20.17
2019-03-24T05:54:39.941Z,21.80
2019-03-24T05:57:07.267Z,20.30
2019-03-24T05:59:34.550Z,20.30
2019-03-24T06:02:01.818Z,21.27
2019-03-24T06:04:29.190Z,19.37
2019-03-24T06:06:56.468Z,21.07
2019-03-24T06:09:23.905Z,23.03
2019-03-24T06:11:51.195Z,22.17
2019-03-24T06:14:18.368Z,22.17
2019-03-24T06:16:45.851Z,22.90
2019-03-24T06:19:13.343Z,18.93
2019-03-24T06:21:40.620Z,17.83
2019-03-24T06:24:07.849Z,24.10
2019-03-24T06:26:37.282Z,21.30
2019-03-24T06:29:04.715Z,21.00
2019-03-24T06:31:32.016Z,21.63
2019-03-24T06:34:00.611Z,20.67
2019-03-24T06:36:27.847Z,21.70
2019-03-24T06:38:55.204Z,23.27
2019-03-24T06:41:22.439Z,23.30
2019-03-24T06:43:49.953Z,22.37
2019-03-24T06:46:17.343Z,22.17
2019-03-24T06:48:44.535Z,21.33
2019-03-24T06:51:11.797Z,22.57
2019-03-24T06:53:39.750Z,22.70
2019-03-24T06:56:07.212Z,22.20
2019-03-24T06:58:34.444Z,22.50
2019-03-24T07:01:01.831Z,22.93
2019-03-24T07:03:29.177Z,21.77
2019-03-24T07:05:56.354Z,24.10
2019-03-24T07:08:23.675Z,21.10
2019-03-24T07:10:50.931Z,23.70
2019-03-24T07:13:19.100Z,22.40
2019-03-24T07:15:46.652Z,20.37
2019-03-24T07:18:14.005Z,20.63
2019-03-24T07:20:41.306Z,22.20
2019-03-24T07:23:08.509Z,21.53
2019-03-24T07:25:35.920Z,21.30
2019-03-24T07:28:03.228Z,21.37
2019-03-24T07:30:30.486Z,21.30
2019-03-24T07:32:57.756Z,20.90
2019-03-24T07:35:25.052Z,20.20
2019-03-24T07:37:52.244Z,20.23
2019-03-24T07:40:19.661Z,20.37
2019-03-24T07:42:46.960Z,18.37
2019-03-24T07:45:14.264Z,20.47
2019-03-24T07:47:41.624Z,19.57
2019-03-24T07:50:09.148Z,19.90
2019-03-24T07:52:36.509Z,20.50
2019-03-24T07:55:04.312Z,19.60
2019-03-24T07:57:32.017Z,19.30
2019-03-24T07:59:59.238Z,19.87
2019-03-24T08:02:26.435Z,20.27
2019-03-24T08:04:53.827Z,19.27
2019-03-24T08:07:20.897Z,19.60
2019-03-24T08:09:48.242Z,18.63
2019-03-24T08:12:15.442Z,19.30
2019-03-24T08:14:42.803Z,18.80
2019-03-24T08:17:10.074Z,18.87
2019-03-24T08:19:37.334Z,19.43
2019-03-24T08:22:04.573Z,18.73
2019-03-24T08:24:31.751Z,18.67
2019-03-24T08:26:59.204Z,20.00
2019-03-24T08:29:26.472Z,19.00
2019-03-24T08:31:53.776Z,20.00
2019-03-24T08:34:20.901Z,18.80
2019-03-24T08:36:48.128Z,19.37
2019-03-24T08:39:15.487Z,19.53
2019-03-24T08:41:42.563Z,20.30
2019-03-24T08:44:09.716Z,18.03
2019-03-24T08:46:37.047Z,19.83
2019-03-24T08:49:04.495Z,18.67
2019-03-24T08:51:31.749Z,18.60
2019-03-24T08:53:59.000Z,17.80
2019-03-24T08:56:26.279Z,19.33
2019-03-24T08:58:53.623Z,17.60
2019-03-24T09:01:20.830Z,17.93
2019-03-24T09:03:48.102Z,17.83
2019-03-24T09:06:15.189Z,18.83
2019-03-24T09:08:42.388Z,18.37
2019-03-24T09:11:09.769Z,17.53
2019-03-24T09:13:36.944Z,19.67
2019-03-24T09:16:04.248Z,17.63
2019-03-24T09:18:31.524Z,18.37
2019-03-24T09:20:58.836Z,17.70
2019-03-24T09:23:26.196Z,18.83
2019-03-24T09:25:53.657Z,17.17
2019-03-24T09:28:20.938Z,17.63
2019-03-24T09:30:48.244Z,17.63
2019-03-24T09:33:15.534Z,17.63
2019-03-24T09:35:42.845Z,17.57
2019-03-24T09:38:11.299Z,17.63
2019-03-24T09:40:38.666Z,17.50
2019-03-24T09:43:05.912Z,17.00
2019-03-24T09:45:33.280Z,17.30
2019-03-24T09:48:00.605Z,17.87
2019-03-24T09:50:27.988Z,16.30
2019-03-24T09:52:55.353Z,16.90
2019-03-24T09:55:22.567Z,17.03
2019-03-24T09:57:49.823Z,16.13
2019-03-24T10:00:17.134Z,18.10
2019-03-24T10:02:44.250Z,17.33
2019-03-24T10:05:11.800Z,16.77
2019-03-24T10:07:38.982Z,16.23
2019-03-24T10:10:06.423Z,16.60
2019-03-24T10:12:33.690Z,16.73
2019-03-24T10:15:00.899Z,16.97
2019-03-24T10:17:28.091Z,16.47
2019-03-24T10:19:55.216Z,16.73
2019-03-24T10:22:22.517Z,16.30
2019-03-24T10:24:49.707Z,18.00
2019-03-24T10:27:16.903Z,18.23
2019-03-24T10:29:44.234Z,18.07
2019-03-24T10:32:11.774Z,17.47
2019-03-24T10:34:39.246Z,17.00
2019-03-24T10:37:06.471Z,16.67
2019-03-24T10:39:33.928Z,16.93
2019-03-24T10:42:01.271Z,16.10
2019-03-24T10:44:28.540Z,17.47
2019-03-24T10:46:55.905Z,16.67
2019-03-24T10:49:25.047Z,17.17
2019-03-24T10:51:52.685Z,16.27
2019-03-24T10:54:19.763Z,15.57
2019-03-24T10:56:46.946Z,16.23
2019-03-24T10:59:14.304Z,16.43
2019-03-24T11:01:41.481Z,16.03
2019-03-24T11:04:08.772Z,17.23
2019-03-24T11:06:36.028Z,16.07
2019-03-24T11:09:04.067Z,16.27
2019-03-24T11:11:31.143Z,16.10
2019-03-24T11:13:58.408Z,15.50
2019-03-24T11:16:25.566Z,15.93
2019-03-24T11:18:52.908Z,14.13
2019-03-24T11:21:20.189Z,16.90
2019-03-24T11:23:47.380Z,15.50
2019-03-24T11:26:14.579Z,15.90
2019-03-24T11:28:41.925Z,15.23
2019-03-24T11:31:09.185Z,14.50
2019-03-24T11:33:36.364Z,15.30
2019-03-24T11:36:03.646Z,15.17
2019-03-24T11:38:31.256Z,13.80
2019-03-24T11:40:58.373Z,14.17
2019-03-24T11:43:25.800Z,14.77
2019-03-24T11:45:53.152Z,14.30
2019-03-24T11:48:20.323Z,14.90
2019-03-24T11:50:48.641Z,15.00
2019-03-24T11:53:15.852Z,14.77
2019-03-24T11:55:43.041Z,15.13
2019-03-24T11:58:10.188Z,13.93
2019-03-24T12:00:38.878Z,15.27
2019-03-24T12:03:06.363Z,14.33
2019-03-24T12:05:33.681Z,14.53
2019-03-24T12:08:01.046Z,13.47
2019-03-24T12:10:28.345Z,13.03
2019-03-24T12:12:55.520Z,14.27
2019-03-24T12:15:22.839Z,14.10
2019-03-24T12:17:49.941Z,13.87
2019-03-24T12:20:17.142Z,13.53
2019-03-24T12:22:44.418Z,13.47
2019-03-24T12:25:11.700Z,13.97
2019-03-24T12:27:38.878Z,14.30
2019-03-24T12:30:07.315Z,14.77
2019-03-24T12:32:34.659Z,14.07
2019-03-24T12:35:01.979Z,14.43
2019-03-24T12:37:29.332Z,14.23
2019-03-24T12:39:58.091Z,14.10
2019-03-24T12:42:25.462Z,16.07
2019-03-24T12:44:52.814Z,15.03
2019-03-24T12:47:20.135Z,14.47
2019-03-24T12:49:47.431Z,14.53
2019-03-24T12:52:14.625Z,15.83
2019-03-24T12:54:41.908Z,15.13
2019-03-24T12:57:09.122Z,14.73
2019-03-24T12:59:36.362Z,13.93
2019-03-24T13:02:03.780Z,13.67
2019-03-24T13:04:31.180Z,12.67
2019-03-24T13:06:58.376Z,14.03
2019-03-24T13:09:25.766Z,13.40
2019-03-24T13:11:53.145Z,12.93
2019-03-24T13:14:20.230Z,12.93
2019-03-24T13:16:47.455Z,13.80
2019-03-24T13:19:14.655Z,12.70
2019-03-24T13:21:41.753Z,13.90
2019-03-24T13:24:09.009Z,14.33
2019-03-24T13:26:36.351Z,13.57
2019-03-24T13:29:03.766Z,14.90
2019-03-24T13:31:30.952Z,13.83
2019-03-24T13:33:58.253Z,14.13
2019-03-24T13:36:25.456Z,13.43
2019-03-24T13:38:52.639Z,13.57
2019-03-24T13:41:19.909Z,12.47
2019-03-24T13:43:46.995Z,13.33
2019-03-24T13:46:14.374Z,13.23
2019-03-24T13:48:41.694Z,12.23
2019-03-24T13:51:08.888Z,11.93
2019-03-24T13:53:36.230Z,11.87
2019-03-24T13:56:03.900Z,12.20
2019-03-24T13:58:31.087Z,13.23
2019-03-24T14:00:58.497Z,11.33
2019-03-24T14:03:25.725Z,12.90
2019-03-24T14:05:52.938Z,11.43
2019-03-24T14:08:20.186Z,12.27
2019-03-24T14:10:47.495Z,12.13
2019-03-24T14:13:14.608Z,10.77
2019-03-24T14:15:41.796Z,10.17
2019-03-24T14:18:09.118Z,10.00
2019-03-24T14:20:43.305Z,10.33
2019-03-24T14:23:05.614Z,11.03
2019-03-24T14:25:32.907Z,11.00
2019-03-24T14:28:00.203Z,9.60
2019-03-24T14:30:40.270Z,11.17
2019-03-24T14:33:07.491Z,11.70
2019-03-24T14:35:34.696Z,11.17
2019-03-24T14:38:01.996Z,10.53
2019-03-24T14:40:29.306Z,10.60
2019-03-24T14:42:56.495Z,9.93
2019-03-24T14:45:24.283Z,10.23
2019-03-24T14:47:51.399Z,11.53
2019-03-24T14:50:18.683Z,10.13
2019-03-24T14:52:46.091Z,9.90
2019-03-24T14:55:13.401Z,10.43
2019-03-24T14:57:40.750Z,10.98
2019-03-24T15:00:08.452Z,9.87
2019-03-24T15:02:35.975Z,9.80
2019-03-24T15:05:03.852Z,9.57
2019-03-24T15:07:31.023Z,10.50
2019-03-24T15:09:58.332Z,9.33
2019-03-24T15:12:25.531Z,10.23
2019-03-24T15:14:52.732Z,9.17
2019-03-24T15:17:20.036Z,9.80
2019-03-24T15:19:47.332Z,9.27
2019-03-24T15:22:14.546Z,10.53
2019-03-24T15:24:42.001Z,9.30
2019-03-24T15:27:09.317Z,9.37
2019-03-24T15:29:36.528Z,9.00
2019-03-24T15:32:03.952Z,9.33
2019-03-24T15:34:31.313Z,10.50
2019-03-24T15:36:58.492Z,9.43
2019-03-24T15:39:26.150Z,10.07
2019-03-24T15:41:53.381Z,9.97
2019-03-24T15:44:20.599Z,10.07
2019-03-24T15:46:47.878Z,11.37
2019-03-24T15:49:14.972Z,11.13
2019-03-24T15:51:42.126Z,9.67
2019-03-24T15:54:13.288Z,9.97
2019-03-24T15:56:40.180Z,11.47
2019-03-24T15:59:07.575Z,10.10
2019-03-24T16:01:34.836Z,11.57
2019-03-24T16:04:02.015Z,11.07
2019-03-24T16:06:29.274Z,10.57
2019-03-24T16:08:56.631Z,10.40
2019-03-24T16:11:23.841Z,10.70
2019-03-24T16:13:53.983Z,11.10
2019-03-24T16:16:23.064Z,11.53
2019-03-24T16:18:50.642Z,12.10
2019-03-24T16:21:27.311Z,11.63
2019-03-24T16:23:47.377Z,12.10
2019-03-24T16:26:14.769Z,10.57
2019-03-24T16:28:42.113Z,11.80
2019-03-24T16:31:09.656Z,11.23
2019-03-24T16:33:36.983Z,11.10
2019-03-24T16:36:04.453Z,11.23
2019-03-24T16:38:31.833Z,12.90
2019-03-24T16:40:59.789Z,11.90
2019-03-24T16:43:27.182Z,11.60
2019-03-24T16:45:54.564Z,12.37
2019-03-24T16:48:21.908Z,12.85
2019-03-24T16:50:49.206Z,12.00
2019-03-24T16:53:16.543Z,12.30
2019-03-24T16:55:43.732Z,12.70
2019-03-24T16:58:11.020Z,12.70
2019-03-24T17:00:38.421Z,12.33
2019-03-24T17:03:05.791Z,12.53
2019-03-24T17:05:33.077Z,13.40
2019-03-24T17:08:00.433Z,13.27
2019-03-24T17:10:27.663Z,13.40
2019-03-24T17:12:54.827Z,13.83
2019-03-24T17:15:22.195Z,14.17
2019-03-24T17:17:49.359Z,13.53
2019-03-24T17:20:16.576Z,14.73
2019-03-24T17:22:43.726Z,13.57
2019-03-24T17:25:11.097Z,13.23
2019-03-24T17:27:38.490Z,14.37
2019-03-24T17:30:07.284Z,14.70
2019-03-24T17:32:34.635Z,14.77
2019-03-24T17:35:01.834Z,14.43
2019-03-24T17:37:30.098Z,13.93
2019-03-24T17:39:57.569Z,13.77
2019-03-24T17:42:24.907Z,14.30
2019-03-24T17:44:52.202Z,14.50
2019-03-24T17:47:19.498Z,13.07
2019-03-24T17:49:48.045Z,16.10
2019-03-24T17:52:15.461Z,14.23
2019-03-24T17:54:42.728Z,12.23
2019-03-24T17:57:10.187Z,14.60
2019-03-24T17:59:37.542Z,15.43
2019-03-24T18:02:14.161Z,14.40
2019-03-24T18:04:37.528Z,13.97
2019-03-24T18:07:04.836Z,14.87
2019-03-24T18:09:32.251Z,15.47
2019-03-24T18:11:59.436Z,13.23
2019-03-24T18:14:26.753Z,13.33
2019-03-24T18:16:54.066Z,13.20
2019-03-24T18:19:21.421Z,14.50
2019-03-24T18:21:48.792Z,16.43
2019-03-24T18:24:16.242Z,14.33
2019-03-24T18:26:43.598Z,15.10
2019-03-24T18:29:10.863Z,15.37
2019-03-24T18:31:38.092Z,15.37
2019-03-24T18:34:05.375Z,16.43
2019-03-24T18:36:32.810Z,15.10
2019-03-24T18:39:00.249Z,16.03
2019-03-24T18:41:27.639Z,14.60
2019-03-24T18:43:55.141Z,16.30
2019-03-24T18:46:22.379Z,14.67
2019-03-24T18:48:50.974Z,15.00
2019-03-24T18:51:18.049Z,13.50
2019-03-24T18:53:45.340Z,15.97
2019-03-24T18:56:12.617Z,14.80
2019-03-24T18:58:39.940Z,16.03
2019-03-24T19:01:07.322Z,15.10
2019-03-24T19:03:34.568Z,13.90
2019-03-24T19:06:01.841Z,14.53
2019-03-24T19:08:29.334Z,15.03
2019-03-24T19:10:56.777Z,13.73
2019-03-24T19:13:24.011Z,13.97
2019-03-24T19:15:51.263Z,14.00
2019-03-24T19:18:18.581Z,13.73
2019-03-24T19:20:45.867Z,14.67
2019-03-24T19:23:13.155Z,13.63
2019-03-24T19:25:40.426Z,13.77
2019-03-24T19:28:07.747Z,14.37
2019-03-24T19:30:39.589Z,14.07
2019-03-24T19:33:07.034Z,13.33
2019-03-24T19:35:34.501Z,16.40
2019-03-24T19:38:02.964Z,16.10
2019-03-24T19:40:31.867Z,14.87
2019-03-24T19:42:59.176Z,14.67
2019-03-24T19:45:26.608Z,14.67
2019-03-24T19:47:54.111Z,14.20
2019-03-24T19:50:21.499Z,14.47
2019-03-24T19:52:48.974Z,15.90
2019-03-24T19:55:16.365Z,17.37
2019-03-24T19:57:43.679Z,16.50
2019-03-24T20:00:10.958Z,16.40
2019-03-24T20:02:38.333Z,15.83
2019-03-24T20:05:07.127Z,15.57
2019-03-24T20:07:35.659Z,16.10
2019-03-24T20:10:03.240Z,15.63
2019-03-24T20:12:31.337Z,17.50
2019-03-24T20:14:58.532Z,16.80
2019-03-24T20:17:25.844Z,14.37
2019-03-24T20:19:53.162Z,14.53
2019-03-24T20:22:20.895Z,17.17
2019-03-24T20:24:48.300Z,14.53
2019-03-24T20:27:15.692Z,14.23
2019-03-24T20:29:43.062Z,15.03
2019-03-24T20:32:10.553Z,12.97
2019-03-24T20:34:37.964Z,12.17
2019-03-24T20:37:05.272Z,14.73
2019-03-24T20:39:33.892Z,16.63
2019-03-24T20:42:04.078Z,14.77
2019-03-24T20:44:31.379Z,17.40
2019-03-24T20:46:58.632Z,16.30
2019-03-24T20:49:26.085Z,16.73
2019-03-24T20:51:53.422Z,16.07
2019-03-24T20:54:20.807Z,14.83
2019-03-24T20:56:48.175Z,13.67
2019-03-24T20:59:15.501Z,15.37
2019-03-24T21:01:42.889Z,16.03
2019-03-24T21:04:10.384Z,16.40
2019-03-24T21:06:37.697Z,15.90
2019-03-24T21:09:06.809Z,15.97
2019-03-24T21:11:34.252Z,14.80
2019-03-24T21:14:01.624Z,13.97
2019-03-24T21:16:28.953Z,15.40
2019-03-24T21:18:56.323Z,16.53
2019-03-24T21:21:23.755Z,14.80
2019-03-24T21:23:51.261Z,16.03
2019-03-24T21:26:18.568Z,14.97
2019-03-24T21:28:46.028Z,14.83
2019-03-24T21:31:13.342Z,16.53
2019-03-24T21:33:40.739Z,16.53
2019-03-24T21:36:08.106Z,13.77
2019-03-24T21:38:35.336Z,13.67
2019-03-24T21:41:02.673Z,13.90
2019-03-24T21:43:30.075Z,12.33
2019-03-24T21:45:57.448Z,13.47
2019-03-24T21:48:25.000Z,14.00
2019-03-24T21:50:52.353Z,12.17
2019-03-24T21:53:19.600Z,12.80
2019-03-24T21:55:47.027Z,12.03
2019-03-24T21:58:14.415Z,12.43
2019-03-24T22:00:41.779Z,12.10
2019-03-24T22:03:09.111Z,13.47
2019-03-24T22:05:36.854Z,13.37
2019-03-24T22:08:04.947Z,12.53
2019-03-24T22:10:32.327Z,15.43
2019-03-24T22:12:59.606Z,14.40
2019-03-24T22:15:27.098Z,14.60
2019-03-24T22:17:54.422Z,12.80
2019-03-24T22:20:21.680Z,13.90
2019-03-24T22:22:49.961Z,15.03
2019-03-24T22:25:17.368Z,14.50
2019-03-24T22:27:44.576Z,15.40
2019-03-24T22:30:11.983Z,13.07
2019-03-24T22:32:40.039Z,16.43
2019-03-24T22:35:07.415Z,14.90
2019-03-24T22:37:34.748Z,15.50
2019-03-24T22:40:03.692Z,14.67
2019-03-24T22:42:31.898Z,15.37
2019-03-24T22:44:59.293Z,15.73
2019-03-24T22:47:26.629Z,13.57
2019-03-24T22:49:53.904Z,16.27
2019-03-24T22:52:21.176Z,15.13
2019-03-24T22:54:48.372Z,14.60
2019-03-24T22:57:15.575Z,15.73
2019-03-24T22:59:42.772Z,15.20
2019-03-24T23:02:10.093Z,14.27
2019-03-24T23:04:37.381Z,15.40
2019-03-24T23:07:04.637Z,15.37
2019-03-24T23:09:31.823Z,15.13
2019-03-24T23:11:59.047Z,15.83
2019-03-24T23:14:26.349Z,15.93
2019-03-24T23:16:53.623Z,14.60
2019-03-24T23:19:20.909Z,16.47
2019-03-24T23:21:48.373Z,17.67
2019-03-24T23:24:16.101Z,16.27
2019-03-24T23:26:43.537Z,15.97
2019-03-24T23:29:11.044Z,16.43
2019-03-24T23:31:38.236Z,15.70
2019-03-24T23:34:05.358Z,15.97
2019-03-24T23:36:32.758Z,14.70
2019-03-24T23:38:59.956Z,16.30
2019-03-24T23:41:27.147Z,16.43
2019-03-24T23:43:54.460Z,14.33
2019-03-24T23:46:21.695Z,13.17
2019-03-24T23:48:48.861Z,15.43
2019-03-24T23:51:16.159Z,15.10
2019-03-24T23:53:43.328Z,15.80
2019-03-24T23:56:10.690Z,13.70
2019-03-24T23:58:41.028Z,12.73
